Main page
METAR-TAF:

METAR-TAF

Airports :

Tunis, Tunisia

Tunis–Carthage International Airport

latitude: 36-50N, longitude: 010-14E, elevation: 3 m

Current weather observation

The report was made 30 minutes ago, at 13:30 UTC
Wind 14 kt from the East/Southeast, varying between East and Southeast
Temperature 21°C
Humidity 60%
Pressure 1016 hPa
Visibility 10 km or more
Scattered clouds at a height of 2600 ft

METAR: DTTA 241330Z 11014KT 080V140 9999 SCT026 21/13 Q1016 NOSIG

Time: 15:00 (14:00 UTC)

Forecast

The report was made 14 hours and 40 minutes ago, at 23:20 UTC
Forecast valid from 24 at 00 UTC to 24 at 24 UTC
Wind 15 kt from the South
Visibility 10 km or more
Few clouds at a height of 2600 ft
Probability 30%
from 24 at 03 UTC to 24 at 18 UTC
Wind 20 kt from the South/Southeast with gusts up to 30 kt

TAF: DTTA 232320Z 2400/2424 17015KT 9999 FEW026 PROB30 2403/2418 15020G30KT

Weather observations and forecasts of more than 4000 airports (METAR and TAF reports).

The available stations are represented by yellow and red dots on the map.

Hover mouse over dot to see the name of the station.

Then click to see weather observations and forecasts.

To change the map : click on the green buttons with a black cross to zoom in, on the green button with a dash to zoom out, or on the green arrows for adjacent maps.


METAR-TAF: